Pagrindinis puslapis
METAR-TAF:

METAR-TAF

Oro uostai :

Kišiniovas, Moldavija

platuma: 46-55-40N, ilguma: 028-55-51E, Aukštis: 122 m

Dabartinis oras

Ataskaita buvo paskelbta 20 minutes, ne 08:00 UTC
Vėjas 1 kt nuo kintamojo kryptimis
Temperatūra 16°C
Drėgmė 68%
Slėgis 1020 hPa
Matomumas 10 km arba daugiau
nėra debesų žemiau 1500 m ir nėra kamuolinių lietaus debesų

METAR: LUKK 180800Z VRB01KT CAVOK 16/10 Q1020 R26/D NOSIG

Laikas: 11:20 (08:20 UTC)

Prognozė

Ataskaita buvo paskelbta 3 valandos ir 0 minutes, ne 05:20 UTC
Prognozė galioja nuo 18 metu 06 UTC su 19 metu 06 UTC
Vėjas 6 kt iš Pietryčių
Matomumas 10 km arba daugiau
nėra debesų žemiau 1500 m ir nėra kamuolinių lietaus debesų
Tapsmas
nuo 18 metu 22 UTC su 18 metu 24 UTC
Matomumas: 3000 m
Su prošvaistėmis ne aukštis 600 ft
rūkana
Tapsmas
nuo 19 metu 00 UTC su 19 metu 02 UTC
Matomumas: 0200 m
rūkas

TAF: LUKK 180520Z 1806/1906 13006KT CAVOK BECMG 1822/1824 3000 BR BKN006 BECMG 1900/1902 0200 FG VV///

Orai ataskaitas ir orų prognozės (METAR, TAF).

turimą stotys yra geltonos ir raudonos taškus žemėlapyje.

Perkelti pele per norėdami pamatyti stoties vardą.

Tada spustelėkite, norėdami matyti oro stebėjimo ir prognozės.

Norėdami pakeisti žemėlapį: spustelėkite ant žalios mygtukų su juodo kryžiaus žemyn,; žalią mygtuką su brūkšneliu, jei norite nutolinti; arba žalių rodyklių gretimoms žemėlapius.


METAR-TAF: